AirNav   Air Wisconsin Up To $57,000 Bonus
 
 1034 users online  

IS80 Uncle Chuck's Airport
De Kalb, Illinois, USA

GOING TO DE KALB?


FAA INFORMATION EFFECTIVE 01 DECEMBER 2022

Location

FAA Identifier: IS80
Lat/Long: 41-55-04.1040N 088-47-21.3160W
41-55.068400N 088-47.355267W
41.9178067,-88.7892544
(estimated)
Elevation: 880 ft. / 268 m (estimated)
Variation: 00W (1985)
From city: 1 mile SW of DE KALB, IL
Time zone: UTC -6 (UTC -5 during Daylight Saving Time)
Zip code: 60115

Airport Operations

Airport use: Private use. Permission required prior to landing
Activation date: 10/1981
Control tower: no
ARTCC: CHICAGO CENTER
FSS: KANKAKEE FLIGHT SERVICE STATION
Attendance: UNATNDD
Segmented circle: no

Airport Communications

WX AWOS-3 at DKB (4 nm E): 119.075 (815-748-2350)
WX AWOS-3 at RPJ (13 nm W): 125.2 (815-562-2955)
WX ASOS at ARR (17 nm SE): PHONE 630-466-5622

Nearby radio navigation aids

VOR radial/distance  VOR name  Freq  Var
DPAr273/19.7DUPAGE VOR/DME108.4002E
JOTr315/30.7JOLIET VOR/DME112.3002E
PLLr092/32.9POLO VOR/DME111.2003E

Airport Services

Runway Information

Runway N/S

Dimensions: 2300 x 70 ft. / 701 x 21 m
Surface: turf
RUNWAY N  RUNWAY S
Traffic pattern: leftleft
Obstructions: nonepline, 380 ft. from runway

Airport Ownership and Management from official FAA records

Ownership: Privately-owned
Owner: CHARLES J. FAIVRE FARMS LLC
8242 S. MALTA RD
DE KALB, IL 60115
Phone 815-756-6011
Manager: ANTHONY FAIVRE
8242 S. MALTA RD
DE KALB, IL 60115
Phone 815-513-2282

Airport Operational Statistics

Aircraft based on the field: 3
Single engine airplanes: 3
    

Additional Remarks

CLOSED FOR REPAIRS.
FOR CD CTC CHICAGO APCH AT 847-289-0926.

Instrument Procedures

There are no published instrument procedures at IS80.

Some nearby airports with instrument procedures:

KDKB - De Kalb Taylor Municipal Airport (4 nm E)
KRPJ - Rochelle Municipal Airport/Koritz Field (13 nm W)
KARR - Aurora Municipal Airport (17 nm SE)
KRFD - Chicago/Rockford International Airport (22 nm NW)
KDPA - DuPage Airport (24 nm E)
 
Loc | Ops | Rwys | IFR | FBO | Links
Com | Nav | Svcs | Stats | Notes
Area around IS80 (Uncle Chuck's Airport)
 
Road maps at: MapQuest Bing Google
 
Aerial photo
No photo
 
Sectional chart

 
Airport distance calculator
Flying to Uncle Chuck's Airport? Find the distance to fly.

From to IS80

Sunrise and sunset
Times for 04-Dec-2022
 Local
(UTC-6)
 Zulu
(UTC)
Morning civil twilight06:3612:36
Sunrise07:0713:07
Sunset16:2322:23
Evening civil twilight16:5522:55

Current date and time
Zulu (UTC)  05-Dec-2022 00:48:07
Local (UTC-6)  04-Dec-2022 18:48:07
 
METAR
KDKB 
4nm E 
050035Z AUTO 21011KT 10SM CLR M01/M07 A3002 RMK AO2 T10131070
KRPJ 
13nm W 
050035Z AUTO 20010KT 10SM CLR M02/M07 A3003 RMK AO2 T10201071 TSNO
KARR 
16nm SE 
042352Z 19008KT 10SM CLR 00/M09 A3004 RMK AO2 SLP182 T00001089 10039 20000 56017
TAF
KRFD 
22nm NW 
042055Z 0421/0518 22009KT P6SM FEW250 FM050200 21008KT P6SM SCT250 WS010/24035KT FM051200 20011G17KT P6SM BKN100
KDPA 
24nm E 
042055Z 0421/0518 23011G18KT P6SM FEW250 FM042200 22009KT P6SM FEW250 FM050200 21008KT P6SM SCT250 WS010/24035KT FM051200 20011G17KT P6SM BKN100
NOTAMs
Click for the latest NOTAMs
NOTAMs are issued by the DoD/FAA and will open in a separate window not controlled by AirNav.

 

 
 

Would you like to see your business listed on this page?

 If your business provides an interesting product or service to pilots, flight crews, aircraft, or users of the Uncle Chuck's Airport, you should consider listing it here.  To start the listing process, click on the button below
 
Add a business
 

Other Pages about Uncle Chuck's Airport

Update a link
 
Copyright © AirNav, LLC. All rights reserved. Privacy Policy  Contact